createdAt,value
2019-03-17T00:02:40.874Z,5.90
2019-03-17T00:05:41.840Z,11.70
2019-03-17T00:08:43.949Z,4.93
2019-03-17T00:11:45.000Z,5.40
2019-03-17T00:17:53.519Z,5.20
2019-03-17T00:20:54.868Z,4.43
2019-03-17T00:23:56.010Z,5.80
2019-03-17T00:26:56.921Z,5.40
2019-03-17T00:29:58.400Z,5.27
2019-03-17T00:33:00.199Z,6.13
2019-03-17T00:36:01.747Z,5.13
2019-03-17T00:39:03.884Z,4.40
2019-03-17T00:42:05.324Z,4.80
2019-03-17T00:48:13.343Z,4.03
2019-03-17T00:51:14.682Z,5.60
2019-03-17T00:54:15.587Z,4.77
2019-03-17T00:57:17.329Z,3.97
2019-03-17T01:00:18.369Z,3.20
2019-03-17T01:03:19.141Z,4.30
2019-03-17T01:06:20.796Z,3.17
2019-03-17T01:09:20.708Z,3.23
2019-03-17T01:12:29.564Z,3.20
2019-03-17T01:18:41.222Z,3.33
2019-03-17T01:21:43.105Z,3.13
2019-03-17T01:24:43.288Z,3.83
2019-03-17T01:27:52.099Z,2.73
2019-03-17T01:30:53.441Z,2.40
2019-03-17T01:33:54.887Z,2.70
2019-03-17T01:36:56.943Z,2.70
2019-03-17T01:39:58.795Z,2.87
2019-03-17T01:42:59.879Z,3.17
2019-03-17T01:49:08.835Z,2.97
2019-03-17T01:52:10.007Z,2.57
2019-03-17T01:55:11.703Z,2.73
2019-03-17T01:58:18.107Z,2.80
2019-03-17T02:01:19.726Z,2.90
2019-03-17T02:13:51.935Z,2.40
2019-03-17T02:17:12.249Z,3.20
2019-03-17T02:20:14.394Z,3.27
2019-03-17T02:23:15.622Z,2.63
2019-03-17T02:26:17.352Z,2.73
2019-03-17T02:29:18.777Z,3.10
2019-03-17T02:32:20.268Z,3.40
2019-03-17T02:35:37.257Z,3.30
2019-03-17T02:38:24.127Z,3.63
2019-03-17T02:41:25.821Z,3.20
2019-03-17T02:44:26.854Z,3.53
2019-03-17T02:47:28.589Z,3.30
2019-03-17T02:50:31.456Z,2.90
2019-03-17T02:53:33.535Z,3.53
2019-03-17T02:56:35.326Z,3.70
2019-03-17T02:59:36.412Z,3.43
2019-03-17T03:02:38.277Z,3.00
2019-03-17T03:05:54.098Z,2.53
2019-03-17T03:08:46.520Z,1.87
2019-03-17T03:11:48.558Z,1.83
2019-03-17T03:14:49.769Z,1.80
2019-03-17T03:21:05.363Z,1.47
2019-03-17T03:24:06.693Z,1.00
2019-03-17T03:27:08.141Z,1.60
2019-03-17T03:30:09.632Z,1.20
2019-03-17T03:33:18.372Z,1.23
2019-03-17T03:36:27.065Z,1.23
2019-03-17T03:39:28.744Z,1.50
2019-03-17T03:42:30.058Z,1.47
2019-03-17T03:45:31.075Z,1.63
2019-03-17T03:51:39.408Z,1.93
2019-03-17T03:54:40.872Z,2.03
2019-03-17T03:57:42.363Z,1.37
2019-03-17T04:00:43.917Z,1.67
2019-03-17T04:03:43.940Z,1.50
2019-03-17T04:06:52.788Z,1.50
2019-03-17T04:10:01.505Z,1.57
2019-03-17T04:13:02.448Z,1.33
2019-03-17T04:16:03.624Z,1.77
2019-03-17T04:19:04.840Z,1.93
2019-03-17T04:22:06.684Z,2.17
2019-03-17T04:25:08.007Z,1.67
2019-03-17T04:28:08.126Z,2.13
2019-03-17T04:31:16.832Z,1.63
2019-03-17T04:34:17.763Z,2.10
2019-03-17T04:37:19.523Z,1.43
2019-03-17T04:40:20.471Z,1.80
2019-03-17T04:43:22.435Z,1.40
2019-03-17T04:46:23.580Z,1.67
2019-03-17T04:52:32.432Z,1.90
2019-03-17T04:55:33.852Z,1.60
2019-03-17T04:58:36.231Z,1.50
2019-03-17T05:01:37.487Z,1.57
2019-03-17T05:04:39.004Z,1.60
2019-03-17T05:07:40.481Z,1.63
2019-03-17T05:10:41.463Z,1.50
2019-03-17T05:13:42.615Z,1.77
2019-03-17T05:16:43.936Z,1.70
2019-03-17T05:22:59.347Z,1.60
2019-03-17T05:26:00.785Z,2.07
2019-03-17T05:29:02.628Z,1.80
2019-03-17T05:32:03.643Z,1.90
2019-03-17T05:35:05.126Z,1.50
2019-03-17T05:38:06.618Z,1.40
2019-03-17T05:41:07.803Z,1.40
2019-03-17T05:44:09.111Z,1.30
2019-03-17T05:47:10.406Z,1.67
2019-03-17T05:53:19.339Z,1.40
2019-03-17T05:56:20.214Z,1.43
2019-03-17T05:59:21.879Z,1.60
2019-03-17T06:02:23.525Z,1.50
2019-03-17T06:05:24.820Z,1.27
2019-03-17T06:08:25.682Z,1.30
2019-03-17T06:11:27.078Z,1.10
2019-03-17T06:14:28.162Z,1.47
2019-03-17T06:17:30.015Z,2.10
2019-03-17T06:20:31.260Z,1.90
2019-03-17T06:23:33.179Z,1.60
2019-03-17T06:26:34.244Z,1.20
2019-03-17T06:29:35.663Z,1.40
2019-03-17T06:32:37.518Z,1.20
2019-03-17T06:35:39.633Z,1.90
2019-03-17T06:38:40.855Z,1.37
2019-03-17T06:41:42.329Z,1.60
2019-03-17T06:44:43.367Z,1.70
2019-03-17T06:47:44.317Z,1.47
2019-03-17T06:53:56.713Z,1.30
2019-03-17T06:56:55.583Z,1.53
2019-03-17T06:59:56.572Z,1.30
2019-03-17T07:02:57.744Z,1.47
2019-03-17T07:05:58.832Z,1.20
2019-03-17T07:08:59.695Z,1.70
2019-03-17T07:12:01.184Z,1.60
2019-03-17T07:15:02.481Z,1.67
2019-03-17T07:18:03.315Z,2.27
2019-03-17T07:24:22.019Z,1.77
2019-03-17T07:27:23.874Z,1.53
2019-03-17T07:30:25.055Z,1.10
2019-03-17T07:33:26.364Z,1.57
2019-03-17T07:36:27.740Z,2.10
2019-03-17T07:39:28.740Z,1.37
2019-03-17T07:42:32.609Z,1.60
2019-03-17T07:45:33.317Z,1.73
2019-03-17T07:48:34.576Z,1.63
2019-03-17T07:51:35.350Z,1.80
2019-03-17T07:54:36.692Z,1.63
2019-03-17T07:57:38.031Z,1.63
2019-03-17T08:00:39.856Z,1.57
2019-03-17T08:03:48.386Z,1.30
2019-03-17T08:06:57.499Z,1.50
2019-03-17T08:09:59.199Z,1.57
2019-03-17T08:13:00.567Z,1.40
2019-03-17T08:16:01.991Z,1.40
2019-03-17T08:19:03.294Z,2.00
2019-03-17T08:22:04.515Z,1.40
2019-03-17T08:25:07.487Z,1.40
2019-03-17T08:28:09.034Z,1.30
2019-03-17T08:31:10.302Z,1.67
2019-03-17T08:34:11.291Z,1.33
2019-03-17T08:37:12.992Z,1.20
2019-03-17T08:40:13.980Z,1.53
2019-03-17T08:43:14.052Z,1.20
2019-03-17T08:46:22.748Z,1.50
2019-03-17T08:49:24.617Z,1.63
2019-03-17T08:55:41.028Z,1.77
2019-03-17T08:58:42.969Z,1.23
2019-03-17T09:01:47.407Z,1.40
2019-03-17T09:04:48.155Z,1.10
2019-03-17T09:07:49.522Z,1.20
2019-03-17T09:10:55.885Z,1.30
2019-03-17T09:13:57.468Z,1.17
2019-03-17T09:16:58.637Z,1.33
2019-03-17T09:19:59.620Z,1.10
2019-03-17T09:26:07.691Z,1.40
2019-03-17T09:29:09.911Z,1.20
2019-03-17T09:32:11.992Z,1.17
2019-03-17T09:35:13.631Z,1.37
2019-03-17T09:38:14.720Z,1.10
2019-03-17T09:41:16.059Z,1.20
2019-03-17T09:44:17.052Z,0.80
2019-03-17T09:47:17.984Z,1.10
2019-03-17T09:50:19.492Z,1.00
2019-03-17T09:53:21.208Z,1.00
2019-03-17T09:56:22.904Z,1.20
2019-03-17T09:59:24.139Z,1.50
2019-03-17T10:02:25.589Z,1.10
2019-03-17T10:05:27.352Z,1.50
2019-03-17T10:08:29.039Z,1.30
2019-03-17T10:11:30.004Z,1.03
2019-03-17T10:14:31.328Z,1.03
2019-03-17T10:17:32.783Z,1.27
2019-03-17T10:20:34.152Z,1.40
2019-03-17T10:26:42.370Z,1.60
2019-03-17T10:29:43.364Z,1.10
2019-03-17T10:32:44.347Z,1.27
2019-03-17T10:35:44.267Z,1.03
2019-03-17T10:38:53.115Z,2.00
2019-03-17T10:41:54.462Z,1.00
2019-03-17T10:44:56.276Z,0.93
2019-03-17T10:47:57.253Z,1.60
2019-03-17T10:50:58.699Z,1.20
2019-03-17T10:57:06.731Z,1.10
2019-03-17T11:00:07.959Z,1.50
2019-03-17T11:03:08.851Z,1.20
2019-03-17T11:06:10.679Z,1.30
2019-03-17T11:09:24.399Z,1.07
2019-03-17T11:12:17.524Z,1.50
2019-03-17T11:15:18.971Z,1.13
2019-03-17T11:18:20.012Z,1.20
2019-03-17T11:21:21.342Z,1.20
2019-03-17T11:27:29.395Z,1.53
2019-03-17T11:30:30.635Z,1.57
2019-03-17T11:33:31.743Z,1.07
2019-03-17T11:36:33.088Z,1.23
2019-03-17T11:39:38.056Z,1.30
2019-03-17T11:42:36.761Z,1.57
2019-03-17T11:45:38.720Z,1.27
2019-03-17T11:58:31.103Z,1.80
2019-03-17T12:01:33.188Z,1.30
2019-03-17T12:04:34.841Z,1.30
2019-03-17T12:07:35.849Z,1.03
2019-03-17T12:13:59.290Z,1.20
2019-03-17T12:17:00.723Z,1.77
2019-03-17T12:19:51.044Z,1.50
2019-03-17T12:23:00.057Z,1.43
2019-03-17T12:29:08.697Z,1.40
2019-03-17T12:32:09.716Z,1.60
2019-03-17T12:35:10.616Z,1.43
2019-03-17T12:38:12.209Z,1.47
2019-03-17T12:41:13.515Z,1.50
2019-03-17T12:44:14.798Z,1.33
2019-03-17T12:47:15.803Z,1.50
2019-03-17T12:50:16.840Z,1.13
2019-03-17T12:53:18.949Z,1.37
2019-03-17T12:59:34.812Z,1.60
2019-03-17T13:02:36.083Z,1.43
2019-03-17T13:05:37.975Z,1.50
2019-03-17T13:08:38.960Z,1.63
2019-03-17T13:11:41.067Z,1.50
2019-03-17T13:14:42.913Z,1.70
2019-03-17T13:17:44.031Z,1.47
2019-03-17T13:20:44.943Z,2.20
2019-03-17T13:23:46.338Z,1.60
2019-03-17T13:29:54.325Z,2.40
2019-03-17T13:32:55.761Z,2.20
2019-03-17T13:35:57.663Z,1.90
2019-03-17T13:38:58.847Z,2.10
2019-03-17T13:42:00.104Z,1.70
2019-03-17T13:45:01.828Z,2.00
2019-03-17T13:48:02.757Z,2.23
2019-03-17T13:51:04.230Z,2.30
2019-03-17T13:54:05.084Z,2.07
2019-03-17T14:00:13.766Z,4.40
2019-03-17T14:03:14.665Z,1.77
2019-03-17T14:06:15.660Z,3.00
2019-03-17T14:09:17.045Z,1.53
2019-03-17T14:12:19.121Z,2.23
2019-03-17T14:15:20.836Z,2.93
2019-03-17T14:18:21.828Z,1.73
2019-03-17T14:21:24.542Z,2.73
2019-03-17T14:24:25.602Z,2.87
2019-03-17T14:27:33.391Z,2.93
2019-03-17T14:30:35.141Z,2.07
2019-03-17T14:33:36.525Z,2.80
2019-03-17T14:36:37.938Z,1.57
2019-03-17T14:39:39.684Z,2.80
2019-03-17T14:42:40.708Z,2.40
2019-03-17T14:45:42.792Z,2.53
2019-03-17T14:48:32.597Z,2.10
2019-03-17T14:51:41.516Z,1.73
2019-03-17T14:54:43.180Z,3.00
2019-03-17T15:00:51.272Z,1.50
2019-03-17T15:03:53.100Z,1.47
2019-03-17T15:06:54.443Z,1.10
2019-03-17T15:09:55.638Z,0.87
2019-03-17T15:12:57.179Z,0.93
2019-03-17T15:16:03.006Z,0.60
2019-03-17T15:19:02.545Z,0.50
2019-03-17T15:22:04.163Z,0.50
2019-03-17T15:25:05.315Z,0.50
2019-03-17T15:31:28.163Z,0.90
2019-03-17T15:34:29.620Z,0.70
2019-03-17T15:37:30.675Z,1.20
2019-03-17T15:40:31.681Z,0.70
2019-03-17T15:43:33.177Z,0.70
2019-03-17T15:46:34.626Z,0.90
2019-03-17T15:49:35.585Z,0.73
2019-03-17T15:52:38.257Z,0.70
2019-03-17T15:55:41.035Z,0.67
2019-03-17T16:01:49.872Z,0.90
2019-03-17T16:05:11.455Z,0.90
2019-03-17T16:07:57.077Z,1.10
2019-03-17T16:10:59.119Z,1.67
2019-03-17T16:14:01.198Z,1.03
2019-03-17T16:17:02.336Z,1.57
2019-03-17T16:20:04.205Z,1.10
2019-03-17T16:23:05.940Z,0.80
2019-03-17T16:26:07.471Z,0.80
2019-03-17T16:32:16.051Z,0.57
2019-03-17T16:35:16.911Z,0.70
2019-03-17T16:38:22.831Z,1.37
2019-03-17T16:41:24.567Z,0.60
2019-03-17T16:44:26.336Z,1.00
2019-03-17T16:47:27.444Z,1.10
2019-03-17T16:50:35.979Z,0.97
2019-03-17T16:53:36.963Z,0.77
2019-03-17T16:56:38.140Z,1.20
2019-03-17T17:02:54.248Z,1.03
2019-03-17T17:05:55.757Z,1.17
2019-03-17T17:08:57.692Z,0.80
2019-03-17T17:11:59.604Z,0.70
2019-03-17T17:15:00.903Z,0.80
2019-03-17T17:18:02.187Z,1.23
2019-03-17T17:21:04.167Z,2.23
2019-03-17T17:24:05.495Z,1.83
2019-03-17T17:27:06.843Z,1.23
2019-03-17T17:33:13.112Z,1.30
2019-03-17T17:36:21.975Z,1.37
2019-03-17T17:39:23.364Z,0.90
2019-03-17T17:42:24.702Z,1.63
2019-03-17T17:45:15.461Z,1.80
2019-03-17T17:48:22.064Z,1.00
2019-03-17T17:54:48.930Z,0.60
2019-03-17T17:57:52.790Z,0.90
2019-03-17T18:10:19.353Z,1.30
2019-03-17T18:13:20.933Z,1.50
2019-03-17T18:16:22.179Z,1.03
2019-03-17T18:19:23.295Z,1.30
2019-03-17T18:22:25.026Z,1.53
2019-03-17T18:25:26.047Z,1.80
2019-03-17T18:28:27.863Z,1.40
2019-03-17T18:34:44.599Z,1.90
2019-03-17T18:37:46.308Z,1.50
2019-03-17T18:40:53.591Z,1.27
2019-03-17T18:43:54.842Z,1.10
2019-03-17T18:46:56.024Z,1.43
2019-03-17T18:49:57.338Z,1.50
2019-03-17T18:52:58.886Z,1.60
2019-03-17T18:56:01.458Z,1.90
2019-03-17T18:59:03.696Z,1.70
2019-03-17T19:02:10.816Z,1.00
2019-03-17T19:08:21.563Z,1.43
2019-03-17T19:11:23.950Z,2.30
2019-03-17T19:14:25.621Z,2.00
2019-03-17T19:17:27.639Z,2.30
2019-03-17T19:23:18.109Z,1.47
2019-03-17T19:26:19.888Z,1.40
2019-03-17T19:38:21.166Z,1.80
2019-03-17T19:41:29.993Z,1.50
2019-03-17T19:54:01.327Z,1.80
2019-03-17T19:57:02.820Z,1.80
2019-03-17T20:00:04.167Z,2.10
2019-03-17T20:06:19.435Z,1.50
2019-03-17T20:09:20.795Z,1.90
2019-03-17T20:12:22.321Z,1.37
2019-03-17T20:15:24.247Z,1.57
2019-03-17T20:18:24.292Z,1.67
2019-03-17T20:24:47.176Z,1.50
2019-03-17T20:27:48.590Z,2.00
2019-03-17T20:30:50.099Z,1.23
2019-03-17T20:33:51.879Z,1.60
2019-03-17T20:36:53.356Z,1.50
2019-03-17T20:39:54.483Z,1.20
2019-03-17T20:42:55.948Z,1.50
2019-03-17T20:45:57.070Z,1.30
2019-03-17T20:48:58.225Z,1.90
2019-03-17T20:51:59.625Z,1.37
2019-03-17T20:55:02.357Z,1.30
2019-03-17T20:58:04.228Z,1.20
2019-03-17T21:01:05.623Z,1.73
2019-03-17T21:07:13.620Z,1.47
2019-03-17T21:16:59.064Z,1.33
2019-03-17T21:20:00.347Z,1.90
2019-03-17T21:23:01.520Z,2.00
2019-03-17T21:26:02.656Z,2.10
2019-03-17T21:29:04.204Z,2.10
2019-03-17T21:32:06.135Z,1.70
2019-03-17T21:38:13.859Z,2.20
2019-03-17T21:41:16.028Z,1.80
2019-03-17T21:44:17.625Z,2.40
2019-03-17T21:47:18.799Z,2.10
2019-03-17T21:50:20.339Z,2.27
2019-03-17T21:53:21.598Z,2.10
2019-03-17T21:56:22.643Z,2.17
2019-03-17T21:59:23.586Z,1.90
2019-03-17T22:02:24.809Z,2.10
2019-03-17T22:05:26.094Z,2.27
2019-03-17T22:08:28.016Z,2.53
2019-03-17T22:11:29.499Z,2.23
2019-03-17T22:14:30.589Z,2.20
2019-03-17T22:17:32.139Z,2.40
2019-03-17T22:20:37.905Z,2.80
2019-03-17T22:23:39.471Z,2.40
2019-03-17T22:26:41.107Z,1.97
2019-03-17T22:29:43.242Z,2.73
2019-03-17T22:32:44.538Z,3.13
2019-03-17T22:38:52.487Z,2.57
2019-03-17T22:41:54.283Z,2.70
2019-03-17T22:44:55.371Z,1.93
2019-03-17T22:47:56.620Z,2.40
2019-03-17T22:50:58.207Z,2.63
2019-03-17T22:53:59.929Z,2.17
2019-03-17T22:57:01.543Z,2.23
2019-03-17T23:00:03.528Z,2.43
2019-03-17T23:03:04.494Z,2.40
2019-03-17T23:09:12.552Z,2.10
2019-03-17T23:12:13.651Z,1.80
2019-03-17T23:15:14.986Z,1.67
2019-03-17T23:18:16.479Z,1.73
2019-03-17T23:21:18.054Z,1.60
2019-03-17T23:24:19.296Z,1.30
2019-03-17T23:27:20.598Z,1.33
2019-03-17T23:30:22.079Z,0.73
2019-03-17T23:33:23.239Z,1.60
2019-03-17T23:36:24.257Z,1.60
2019-03-17T23:39:25.971Z,1.50
2019-03-17T23:42:27.472Z,1.67
2019-03-17T23:45:17.187Z,1.60
2019-03-17T23:48:26.151Z,1.37
2019-03-17T23:51:33.771Z,1.90
2019-03-17T23:54:41.418Z,1.80
2019-03-17T23:57:42.995Z,1.50
